createdAt,value
2018-07-15T00:01:47.080Z,17.21
2018-07-15T00:04:15.709Z,17.22
2018-07-15T00:06:45.214Z,17.21
2018-07-15T00:09:14.457Z,17.22
2018-07-15T00:11:43.023Z,17.22
2018-07-15T00:14:11.581Z,17.25
2018-07-15T00:16:40.161Z,17.27
2018-07-15T00:19:08.700Z,17.28
2018-07-15T00:21:37.243Z,17.29
2018-07-15T00:24:05.895Z,17.31
2018-07-15T00:26:34.404Z,17.29
2018-07-15T00:29:03.073Z,17.28
2018-07-15T00:31:31.763Z,17.28
2018-07-15T00:34:00.360Z,17.29
2018-07-15T00:36:28.919Z,17.29
2018-07-15T00:38:57.508Z,17.28
2018-07-15T00:41:26.042Z,17.29
2018-07-15T00:43:54.675Z,17.29
2018-07-15T00:46:23.360Z,17.28
2018-07-15T00:48:52.094Z,17.30
2018-07-15T00:51:20.730Z,17.31
2018-07-15T00:53:49.419Z,17.32
2018-07-15T00:56:17.945Z,17.30
2018-07-15T00:58:46.581Z,17.31
2018-07-15T01:01:15.269Z,17.30
2018-07-15T01:03:43.918Z,17.29
2018-07-15T01:06:12.533Z,17.28
2018-07-15T01:08:41.084Z,17.28
2018-07-15T01:11:09.622Z,17.29
2018-07-15T01:13:38.283Z,17.30
2018-07-15T01:16:06.983Z,17.29
2018-07-15T01:18:36.474Z,17.29
2018-07-15T01:21:05.594Z,17.30
2018-07-15T01:23:34.254Z,17.31
2018-07-15T01:26:02.863Z,17.29
2018-07-15T01:28:31.521Z,17.27
2018-07-15T01:31:00.174Z,17.26
2018-07-15T01:33:28.742Z,17.27
2018-07-15T01:35:57.375Z,17.28
2018-07-15T01:38:25.983Z,17.27
2018-07-15T01:40:54.488Z,17.27
2018-07-15T01:43:23.020Z,17.25
2018-07-15T01:45:51.529Z,17.24
2018-07-15T01:48:20.186Z,17.25
2018-07-15T01:50:48.727Z,17.25
2018-07-15T01:53:17.350Z,17.18
2018-07-15T01:55:45.885Z,17.27
2018-07-15T01:58:14.459Z,17.28
2018-07-15T02:00:43.043Z,17.28
2018-07-15T02:03:11.681Z,17.26
2018-07-15T02:05:40.895Z,17.25
2018-07-15T02:08:09.406Z,17.23
2018-07-15T02:10:37.990Z,17.22
2018-07-15T02:13:06.939Z,17.24
2018-07-15T02:15:35.465Z,17.23
2018-07-15T02:18:04.044Z,17.27
2018-07-15T02:20:32.683Z,17.28
2018-07-15T02:23:01.266Z,17.28
2018-07-15T02:25:29.878Z,17.30
2018-07-15T02:27:58.497Z,17.31
2018-07-15T02:30:27.121Z,17.32
2018-07-15T02:32:55.613Z,17.33
2018-07-15T02:35:24.243Z,17.35
2018-07-15T02:37:52.867Z,17.35
2018-07-15T02:40:21.550Z,17.36
2018-07-15T02:42:50.241Z,17.35
2018-07-15T02:45:18.818Z,17.34
2018-07-15T02:47:47.402Z,17.33
2018-07-15T02:50:16.057Z,17.35
2018-07-15T02:52:44.772Z,17.36
2018-07-15T02:55:13.447Z,17.37
2018-07-15T02:57:42.123Z,17.37
2018-07-15T03:00:10.627Z,17.40
2018-07-15T03:02:39.231Z,17.42
2018-07-15T03:05:07.892Z,17.40
2018-07-15T03:07:36.511Z,17.42
2018-07-15T03:10:05.079Z,17.44
2018-07-15T03:12:33.608Z,17.45
2018-07-15T03:15:02.123Z,17.46
2018-07-15T03:17:30.764Z,17.48
2018-07-15T03:19:59.243Z,17.48
2018-07-15T03:22:27.755Z,17.48
2018-07-15T03:24:56.400Z,17.48
2018-07-15T03:27:25.034Z,17.49
2018-07-15T03:29:54.320Z,17.51
2018-07-15T03:32:23.020Z,17.55
2018-07-15T03:34:51.547Z,17.55
2018-07-15T03:37:20.134Z,17.54
2018-07-15T03:39:48.926Z,17.56
2018-07-15T03:42:17.456Z,17.59
2018-07-15T03:44:46.092Z,17.59
2018-07-15T03:47:14.826Z,17.59
2018-07-15T03:49:43.412Z,17.60
2018-07-15T03:52:12.043Z,17.59
2018-07-15T03:54:40.611Z,17.62
2018-07-15T03:57:09.258Z,17.63
2018-07-15T03:59:37.845Z,17.67
2018-07-15T04:02:06.629Z,17.67
2018-07-15T04:04:35.255Z,17.69
2018-07-15T04:07:03.843Z,17.68
2018-07-15T04:09:32.479Z,17.69
2018-07-15T04:12:01.115Z,17.71
2018-07-15T04:14:29.669Z,17.68
2018-07-15T04:16:58.254Z,17.72
2018-07-15T04:19:26.917Z,17.75
2018-07-15T04:21:55.557Z,17.79
2018-07-15T04:24:24.130Z,17.81
2018-07-15T04:26:52.971Z,17.80
2018-07-15T04:29:21.552Z,17.81
2018-07-15T04:31:50.168Z,17.83
2018-07-15T04:34:18.707Z,17.83
2018-07-15T04:36:48.017Z,17.85
2018-07-15T04:39:17.367Z,17.91
2018-07-15T04:41:46.004Z,17.92
2018-07-15T04:44:14.585Z,17.92
2018-07-15T04:46:43.111Z,17.94
2018-07-15T04:49:11.638Z,17.96
2018-07-15T04:51:40.120Z,17.96
2018-07-15T04:54:08.751Z,17.97
2018-07-15T04:56:37.396Z,17.98
2018-07-15T04:59:05.995Z,18.01
2018-07-15T05:01:39.067Z,18.03
2018-07-15T05:04:07.561Z,18.05
2018-07-15T05:06:36.177Z,18.03
2018-07-15T05:09:06.003Z,18.02
2018-07-15T05:11:34.537Z,18.09
2018-07-15T05:14:03.109Z,18.14
2018-07-15T05:16:31.643Z,18.19
2018-07-15T05:19:00.420Z,18.21
2018-07-15T05:21:29.115Z,18.21
2018-07-15T05:23:57.647Z,18.23
2018-07-15T05:26:26.433Z,18.21
2018-07-15T05:28:55.033Z,18.25
2018-07-15T05:31:23.701Z,18.23
2018-07-15T05:33:52.320Z,18.27
2018-07-15T05:36:20.912Z,18.31
2018-07-15T05:38:49.551Z,18.31
2018-07-15T05:41:18.100Z,18.37
2018-07-15T05:43:46.659Z,18.41
2018-07-15T05:46:15.216Z,18.40
2018-07-15T05:48:43.725Z,18.43
2018-07-15T05:51:12.993Z,18.44
2018-07-15T05:53:41.623Z,18.47
2018-07-15T05:56:10.158Z,18.51
2018-07-15T05:58:38.753Z,18.47
2018-07-15T06:01:07.802Z,18.47
2018-07-15T06:03:36.469Z,18.51
2018-07-15T06:06:05.089Z,18.54
2018-07-15T06:08:33.631Z,18.59
2018-07-15T06:11:02.523Z,18.62
2018-07-15T06:13:32.111Z,18.63
2018-07-15T06:16:00.717Z,18.68
2018-07-15T06:18:29.288Z,18.75
2018-07-15T06:20:57.863Z,18.74
2018-07-15T06:23:26.504Z,18.73
2018-07-15T06:25:55.013Z,18.77
2018-07-15T06:28:23.512Z,18.80
2018-07-15T06:30:52.067Z,18.82
2018-07-15T06:33:20.656Z,18.91
2018-07-15T06:35:49.256Z,18.85
2018-07-15T06:38:17.852Z,18.96
2018-07-15T06:40:46.735Z,19.01
2018-07-15T06:43:15.369Z,19.00
2018-07-15T06:45:43.911Z,18.99
2018-07-15T06:48:12.477Z,18.99
2018-07-15T06:50:41.038Z,18.83
2018-07-15T06:53:09.631Z,18.72
2018-07-15T06:55:38.202Z,18.73
2018-07-15T06:58:06.715Z,18.72
2018-07-15T07:00:35.336Z,18.68
2018-07-15T07:03:04.033Z,18.78
2018-07-15T07:05:32.923Z,18.91
2018-07-15T07:08:01.574Z,19.02
2018-07-15T07:10:30.121Z,18.95
2018-07-15T07:12:58.714Z,19.02
2018-07-15T07:15:27.973Z,19.01
2018-07-15T07:17:56.602Z,19.02
2018-07-15T07:20:25.196Z,19.10
2018-07-15T07:22:53.820Z,19.15
2018-07-15T07:25:22.506Z,19.24
2018-07-15T07:27:51.180Z,19.31
2018-07-15T07:30:20.563Z,19.33
2018-07-15T07:32:49.137Z,19.38
2018-07-15T07:35:18.379Z,19.39
2018-07-15T07:37:47.060Z,19.43
2018-07-15T07:40:15.698Z,19.38
2018-07-15T07:42:44.371Z,19.29
2018-07-15T07:45:13.015Z,19.25
2018-07-15T07:47:41.731Z,19.19
2018-07-15T07:50:10.303Z,19.14
2018-07-15T07:52:39.067Z,19.32
2018-07-15T07:55:07.658Z,19.38
2018-07-15T07:57:36.284Z,19.41
2018-07-15T08:00:05.091Z,19.47
2018-07-15T08:02:33.618Z,19.49
2018-07-15T08:05:02.223Z,19.37
2018-07-15T08:07:30.817Z,19.29
2018-07-15T08:09:59.455Z,19.37
2018-07-15T08:12:28.757Z,19.51
2018-07-15T08:14:58.106Z,19.66
2018-07-15T08:17:26.636Z,19.77
2018-07-15T08:19:55.299Z,19.88
2018-07-15T08:22:23.909Z,19.95
2018-07-15T08:24:52.593Z,19.90
2018-07-15T08:27:21.173Z,19.75
2018-07-15T08:30:01.027Z,19.75
2018-07-15T08:32:29.632Z,19.87
2018-07-15T08:34:58.283Z,20.05
2018-07-15T08:37:26.811Z,20.14
2018-07-15T08:39:55.559Z,20.18
2018-07-15T08:42:24.079Z,20.26
2018-07-15T08:44:52.758Z,20.16
2018-07-15T08:47:21.408Z,20.23
2018-07-15T08:49:49.940Z,20.29
2018-07-15T08:52:18.529Z,20.35
2018-07-15T08:54:47.181Z,20.40
2018-07-15T08:57:15.742Z,20.37
2018-07-15T08:59:44.528Z,20.33
2018-07-15T09:02:13.781Z,20.30
2018-07-15T09:04:42.398Z,20.33
2018-07-15T09:07:10.931Z,20.37
2018-07-15T09:09:39.509Z,20.25
2018-07-15T09:12:08.773Z,20.38
2018-07-15T09:14:37.376Z,20.47
2018-07-15T09:17:06.004Z,20.51
2018-07-15T09:19:34.975Z,20.47
2018-07-15T09:22:04.423Z,20.34
2018-07-15T09:24:33.570Z,20.22
2018-07-15T09:27:02.419Z,20.27
2018-07-15T09:29:30.906Z,20.30
2018-07-15T09:31:59.545Z,20.29
2018-07-15T09:34:28.169Z,20.43
2018-07-15T09:36:56.752Z,20.70
2018-07-15T09:39:25.392Z,20.67
2018-07-15T09:41:53.976Z,20.88
2018-07-15T09:44:22.543Z,21.06
2018-07-15T09:46:51.261Z,21.12
2018-07-15T09:49:19.800Z,21.10
2018-07-15T09:51:48.384Z,20.97
2018-07-15T09:54:16.993Z,21.11
2018-07-15T09:56:45.539Z,21.18
2018-07-15T09:59:14.260Z,21.25
2018-07-15T10:01:42.832Z,21.18
2018-07-15T10:04:11.368Z,21.11
2018-07-15T10:06:39.896Z,21.20
2018-07-15T10:09:08.466Z,21.32
2018-07-15T10:11:37.539Z,21.29
2018-07-15T10:14:06.110Z,21.24
2018-07-15T10:16:34.618Z,21.27
2018-07-15T10:19:03.327Z,21.13
2018-07-15T10:21:31.907Z,20.94
2018-07-15T10:24:00.471Z,21.17
2018-07-15T10:26:29.195Z,21.42
2018-07-15T10:28:57.684Z,21.52
2018-07-15T10:31:26.249Z,21.64
2018-07-15T10:33:54.875Z,21.70
2018-07-15T10:36:23.391Z,21.62
2018-07-15T10:38:51.990Z,21.83
2018-07-15T10:41:20.612Z,21.79
2018-07-15T10:43:49.515Z,21.70
2018-07-15T10:46:18.028Z,21.80
2018-07-15T10:48:46.627Z,21.92
2018-07-15T10:51:15.363Z,21.80
2018-07-15T10:53:43.967Z,21.70
2018-07-15T10:56:12.531Z,21.72
2018-07-15T10:58:41.216Z,21.74
2018-07-15T11:01:10.045Z,21.68
2018-07-15T11:03:38.690Z,21.44
2018-07-15T11:06:07.416Z,21.46
2018-07-15T11:08:35.984Z,21.57
2018-07-15T11:11:04.591Z,21.42
2018-07-15T11:13:33.258Z,21.59
2018-07-15T11:16:01.843Z,21.75
2018-07-15T11:18:30.496Z,21.73
2018-07-15T11:21:00.715Z,21.64
2018-07-15T11:23:29.400Z,21.66
2018-07-15T11:25:57.966Z,21.61
2018-07-15T11:28:26.611Z,21.26
2018-07-15T11:30:55.608Z,21.10
2018-07-15T11:33:24.103Z,21.04
2018-07-15T11:35:52.827Z,21.02
2018-07-15T11:38:21.410Z,21.13
2018-07-15T11:40:49.994Z,21.24
2018-07-15T11:43:18.599Z,21.35
2018-07-15T11:45:49.830Z,21.43
2018-07-15T11:48:18.515Z,21.56
2018-07-15T11:50:47.121Z,21.54
2018-07-15T11:53:15.740Z,21.48
2018-07-15T11:55:44.299Z,21.43
2018-07-15T11:58:12.870Z,21.41
2018-07-15T12:00:41.490Z,21.45
2018-07-15T12:03:10.147Z,21.49
2018-07-15T12:05:38.656Z,21.61
2018-07-15T12:08:07.358Z,21.72
2018-07-15T12:10:36.106Z,21.84
2018-07-15T12:13:04.654Z,21.92
2018-07-15T12:15:33.428Z,21.64
2018-07-15T12:18:01.907Z,21.67
2018-07-15T12:20:30.508Z,21.74
2018-07-15T12:23:00.199Z,21.75
2018-07-15T12:25:29.520Z,21.74
2018-07-15T12:27:58.126Z,21.60
2018-07-15T12:30:26.878Z,21.42
2018-07-15T12:32:55.483Z,21.43
2018-07-15T12:35:25.023Z,21.58
2018-07-15T12:37:53.575Z,21.69
2018-07-15T12:40:22.069Z,21.68
2018-07-15T12:42:50.708Z,21.69
2018-07-15T12:45:20.273Z,21.59
2018-07-15T12:47:48.824Z,21.42
2018-07-15T12:50:17.402Z,21.34
2018-07-15T12:52:46.056Z,21.54
2018-07-15T12:55:14.645Z,21.63
2018-07-15T12:57:43.228Z,21.66
2018-07-15T13:00:11.913Z,21.77
2018-07-15T13:02:40.552Z,21.79
2018-07-15T13:05:09.201Z,21.79
2018-07-15T13:07:38.788Z,21.70
2018-07-15T13:10:07.390Z,21.73
2018-07-15T13:12:36.364Z,21.85
2018-07-15T13:15:05.457Z,21.97
2018-07-15T13:17:34.145Z,21.92
2018-07-15T13:20:02.671Z,21.84
2018-07-15T13:22:31.694Z,21.89
2018-07-15T13:25:00.283Z,21.98
2018-07-15T13:27:28.887Z,22.23
2018-07-15T13:29:57.569Z,22.39
2018-07-15T13:32:26.177Z,22.38
2018-07-15T13:34:54.779Z,22.32
2018-07-15T13:37:23.833Z,22.38
2018-07-15T13:39:52.459Z,22.54
2018-07-15T13:42:21.039Z,22.59
2018-07-15T13:44:49.673Z,22.31
2018-07-15T13:47:18.163Z,22.40
2018-07-15T13:49:46.849Z,22.40
2018-07-15T13:52:15.490Z,22.61
2018-07-15T13:54:44.030Z,22.87
2018-07-15T13:57:12.698Z,23.06
2018-07-15T13:59:41.347Z,23.13
2018-07-15T14:02:09.856Z,23.24
2018-07-15T14:04:38.463Z,23.03
2018-07-15T14:07:07.065Z,23.19
2018-07-15T14:09:35.717Z,23.25
2018-07-15T14:12:04.351Z,23.38
2018-07-15T14:14:32.930Z,23.52
2018-07-15T14:17:01.503Z,23.39
2018-07-15T14:19:30.046Z,23.19
2018-07-15T14:21:58.611Z,22.99
2018-07-15T14:24:27.210Z,23.04
2018-07-15T14:26:55.898Z,23.02
2018-07-15T14:29:24.395Z,23.02
2018-07-15T14:31:52.958Z,22.94
2018-07-15T14:34:21.475Z,23.01
2018-07-15T14:36:50.089Z,23.07
2018-07-15T14:39:18.690Z,23.11
2018-07-15T14:41:47.357Z,23.13
2018-07-15T14:44:16.687Z,23.03
2018-07-15T14:46:46.002Z,22.93
2018-07-15T14:49:14.515Z,23.07
2018-07-15T14:51:43.120Z,22.97
2018-07-15T14:54:11.759Z,23.01
2018-07-15T14:56:40.388Z,23.11
2018-07-15T14:59:08.951Z,23.26
2018-07-15T15:01:37.493Z,23.29
2018-07-15T15:04:06.024Z,23.11
2018-07-15T15:06:34.630Z,23.20
2018-07-15T15:09:03.366Z,23.28
2018-07-15T15:11:31.928Z,23.27
2018-07-15T15:14:00.573Z,23.25
2018-07-15T15:16:29.078Z,23.27
2018-07-15T15:18:57.593Z,23.43
2018-07-15T15:21:26.310Z,23.52
2018-07-15T15:23:55.369Z,23.59
2018-07-15T15:26:23.979Z,23.55
2018-07-15T15:28:52.819Z,23.38
2018-07-15T15:31:21.413Z,23.17
2018-07-15T15:33:50.031Z,23.32
2018-07-15T15:36:18.881Z,23.56
2018-07-15T15:38:47.468Z,23.63
2018-07-15T15:41:15.963Z,23.53
2018-07-15T15:43:45.255Z,23.52
2018-07-15T15:46:13.827Z,23.41
2018-07-15T15:48:42.447Z,23.33
2018-07-15T15:51:11.816Z,23.44
2018-07-15T15:53:40.347Z,23.58
2018-07-15T15:56:08.921Z,23.57
2018-07-15T15:58:38.137Z,23.65
2018-07-15T16:01:06.676Z,23.68
2018-07-15T16:03:35.270Z,23.66
2018-07-15T16:06:03.923Z,23.75
2018-07-15T16:08:32.434Z,23.65
2018-07-15T16:11:01.012Z,23.72
2018-07-15T16:13:29.774Z,23.66
2018-07-15T16:15:58.357Z,23.67
2018-07-15T16:18:26.941Z,23.58
2018-07-15T16:20:55.830Z,23.64
2018-07-15T16:23:24.360Z,23.60
2018-07-15T16:25:52.908Z,23.21
2018-07-15T16:28:21.514Z,23.32
2018-07-15T16:30:50.163Z,23.28
2018-07-15T16:33:18.744Z,23.35
2018-07-15T16:35:48.019Z,23.19
2018-07-15T16:38:16.573Z,22.95
2018-07-15T16:40:45.145Z,22.91
2018-07-15T16:43:13.757Z,22.77
2018-07-15T16:45:42.331Z,22.78
2018-07-15T16:48:11.019Z,22.83
2018-07-15T16:50:39.594Z,22.88
2018-07-15T16:53:08.215Z,22.89
2018-07-15T16:55:36.809Z,22.81
2018-07-15T16:58:05.479Z,22.84
2018-07-15T17:00:34.083Z,22.84
2018-07-15T17:03:02.654Z,22.88
2018-07-15T17:05:31.243Z,22.95
2018-07-15T17:07:59.827Z,22.95
2018-07-15T17:10:28.323Z,22.90
2018-07-15T17:12:56.953Z,22.75
2018-07-15T17:15:26.465Z,22.56
2018-07-15T17:17:55.078Z,22.42
2018-07-15T17:20:23.767Z,22.43
2018-07-15T17:22:53.063Z,22.30
2018-07-15T17:25:21.589Z,22.33
2018-07-15T17:27:50.231Z,22.39
2018-07-15T17:30:18.837Z,22.42
2018-07-15T17:32:47.497Z,22.46
2018-07-15T17:35:16.007Z,22.30
2018-07-15T17:37:44.702Z,22.25
2018-07-15T17:40:13.347Z,22.27
2018-07-15T17:42:42.023Z,22.19
2018-07-15T17:45:10.616Z,22.07
2018-07-15T17:47:39.142Z,21.94
2018-07-15T17:50:07.790Z,21.71
2018-07-15T17:52:36.422Z,21.65
2018-07-15T17:55:04.981Z,21.64
2018-07-15T17:57:33.635Z,21.65
2018-07-15T18:00:02.893Z,21.49
2018-07-15T18:02:31.432Z,21.33
2018-07-15T18:05:00.152Z,21.30
2018-07-15T18:07:29.216Z,21.23
2018-07-15T18:09:57.878Z,21.28
2018-07-15T18:12:26.385Z,21.25
2018-07-15T18:14:55.560Z,21.04
2018-07-15T18:17:24.189Z,20.99
2018-07-15T18:19:52.994Z,20.92
2018-07-15T18:22:21.557Z,20.87
2018-07-15T18:24:50.155Z,20.73
2018-07-15T18:27:18.771Z,20.67
2018-07-15T18:29:47.382Z,20.60
2018-07-15T18:32:15.935Z,20.40
2018-07-15T18:34:44.943Z,20.28
2018-07-15T18:37:13.653Z,20.19
2018-07-15T18:39:42.295Z,20.08
2018-07-15T18:42:10.890Z,19.96
2018-07-15T18:44:39.387Z,19.85
2018-07-15T18:47:08.056Z,19.75
2018-07-15T18:49:36.651Z,19.67
2018-07-15T18:52:05.265Z,19.56
2018-07-15T18:54:33.907Z,19.50
2018-07-15T18:57:02.471Z,19.42
2018-07-15T18:59:31.023Z,19.38
2018-07-15T19:01:59.654Z,19.33
2018-07-15T19:04:28.155Z,19.24
2018-07-15T19:06:56.768Z,19.18
2018-07-15T19:09:25.495Z,19.12
2018-07-15T19:11:54.048Z,19.06
2018-07-15T19:14:22.721Z,18.99
2018-07-15T19:16:51.415Z,18.94
2018-07-15T19:19:20.095Z,18.87
2018-07-15T19:21:48.683Z,18.80
2018-07-15T19:24:17.259Z,18.78
2018-07-15T19:26:45.855Z,18.74
2018-07-15T19:29:14.526Z,18.66
2018-07-15T19:31:43.164Z,18.66
2018-07-15T19:34:11.951Z,18.58
2018-07-15T19:36:40.658Z,18.57
2018-07-15T19:39:09.301Z,18.51
2018-07-15T19:41:38.008Z,18.33
2018-07-15T19:44:06.610Z,18.39
2018-07-15T19:46:35.135Z,18.27
2018-07-15T19:49:04.119Z,18.23
2018-07-15T19:51:32.643Z,18.17
2018-07-15T19:54:01.255Z,18.13
2018-07-15T19:56:29.863Z,18.07
2018-07-15T19:58:58.443Z,18.05
2018-07-15T20:01:27.141Z,17.90
2018-07-15T20:03:55.968Z,17.86
2018-07-15T20:06:24.653Z,17.83
2018-07-15T20:08:53.341Z,17.79
2018-07-15T20:11:21.864Z,17.70
2018-07-15T20:13:50.427Z,17.63
2018-07-15T20:16:19.091Z,17.56
2018-07-15T20:18:47.776Z,17.55
2018-07-15T20:21:16.410Z,17.53
2018-07-15T20:23:44.991Z,17.48
2018-07-15T20:26:13.795Z,17.43
2018-07-15T20:28:42.365Z,17.39
2018-07-15T20:31:10.994Z,17.34
2018-07-15T20:33:39.535Z,17.28
2018-07-15T20:36:08.104Z,17.20
2018-07-15T20:38:36.743Z,17.13
2018-07-15T20:41:05.263Z,17.06
2018-07-15T20:43:33.835Z,16.98
2018-07-15T20:46:02.441Z,16.87
2018-07-15T20:48:31.078Z,16.79
2018-07-15T20:51:00.203Z,16.71
2018-07-15T20:53:28.785Z,16.62
2018-07-15T20:55:57.367Z,16.56
2018-07-15T20:58:26.020Z,16.49
2018-07-15T21:00:54.547Z,16.43
2018-07-15T21:03:23.185Z,16.38
2018-07-15T21:05:51.801Z,16.32
2018-07-15T21:08:20.369Z,16.25
2018-07-15T21:10:49.037Z,16.19
2018-07-15T21:13:18.337Z,16.13
2018-07-15T21:15:47.022Z,16.05
2018-07-15T21:18:15.742Z,16.00
2018-07-15T21:20:44.447Z,15.95
2018-07-15T21:23:13.682Z,15.91
2018-07-15T21:25:42.258Z,15.86
2018-07-15T21:28:10.758Z,15.81
2018-07-15T21:30:39.444Z,15.73
2018-07-15T21:33:08.025Z,15.67
2018-07-15T21:35:36.708Z,15.62
2018-07-15T21:38:05.429Z,15.56
2018-07-15T21:40:34.073Z,15.50
2018-07-15T21:43:02.663Z,15.45
2018-07-15T21:45:31.245Z,15.38
2018-07-15T21:47:59.828Z,15.32
2018-07-15T21:50:28.468Z,15.25
2018-07-15T21:52:57.099Z,15.25
2018-07-15T21:55:26.192Z,15.19
2018-07-15T21:57:54.834Z,15.13
2018-07-15T22:00:23.384Z,15.07
2018-07-15T22:02:53.012Z,15.01
2018-07-15T22:05:21.648Z,14.97
2018-07-15T22:08:01.321Z,14.95
2018-07-15T22:10:37.892Z,14.90
2018-07-15T22:13:06.422Z,14.86
2018-07-15T22:15:35.482Z,14.80
2018-07-15T22:18:04.688Z,14.72
2018-07-15T22:20:33.263Z,14.71
2018-07-15T22:23:02.355Z,14.66
2018-07-15T22:25:30.952Z,14.64
2018-07-15T22:28:00.705Z,14.58
2018-07-15T22:30:29.310Z,14.57
2018-07-15T22:32:57.902Z,14.53
2018-07-15T22:35:26.648Z,14.47
2018-07-15T22:37:55.344Z,14.44
2018-07-15T22:40:23.842Z,14.37
2018-07-15T22:42:52.445Z,14.34
2018-07-15T22:45:20.991Z,14.31
2018-07-15T22:47:49.640Z,14.27
2018-07-15T22:50:18.792Z,14.20
2018-07-15T22:52:47.456Z,14.18
2018-07-15T22:55:15.958Z,14.15
2018-07-15T22:57:44.723Z,14.13
2018-07-15T23:00:13.421Z,14.12
2018-07-15T23:02:41.926Z,14.08
2018-07-15T23:05:51.125Z,14.03
2018-07-15T23:08:20.118Z,13.95
2018-07-15T23:10:48.847Z,13.97
2018-07-15T23:13:17.897Z,13.94
2018-07-15T23:15:46.542Z,13.92
2018-07-15T23:18:15.168Z,13.90
2018-07-15T23:20:44.535Z,13.87
2018-07-15T23:23:13.663Z,13.83
2018-07-15T23:25:42.164Z,13.79
2018-07-15T23:28:12.511Z,13.75
2018-07-15T23:30:41.873Z,13.73
2018-07-15T23:33:11.006Z,13.70
2018-07-15T23:35:39.700Z,13.68
2018-07-15T23:38:08.337Z,13.64
2018-07-15T23:40:36.903Z,13.60
2018-07-15T23:43:05.918Z,13.56
2018-07-15T23:45:35.255Z,13.55
2018-07-15T23:48:04.819Z,13.55
2018-07-15T23:50:33.501Z,13.51
2018-07-15T23:53:02.188Z,13.50
2018-07-15T23:55:30.858Z,13.47
2018-07-15T23:57:59.535Z,13.45
